createdAt,value
2022-08-19T00:01:54.801Z,9.18
2022-08-19T00:04:25.320Z,9.25
2022-08-19T00:06:54.004Z,8.45
2022-08-19T00:09:25.034Z,8.65
2022-08-19T00:11:53.996Z,9.30
2022-08-19T00:14:22.884Z,8.00
2022-08-19T00:16:52.440Z,8.70
2022-08-19T00:19:20.241Z,9.32
2022-08-19T00:21:48.059Z,8.95
2022-08-19T00:24:16.535Z,9.85
2022-08-19T00:26:47.189Z,10.20
2022-08-19T00:29:17.561Z,9.00
2022-08-19T00:31:45.930Z,9.52
2022-08-19T00:34:14.556Z,9.18
2022-08-19T00:36:42.900Z,9.35
2022-08-19T00:39:11.674Z,9.98
2022-08-19T00:41:39.453Z,9.30
2022-08-19T00:44:10.530Z,10.98
2022-08-19T00:46:40.308Z,10.15
2022-08-19T00:49:16.438Z,10.52
2022-08-19T00:51:46.800Z,10.25
2022-08-19T00:54:14.942Z,12.45
2022-08-19T00:56:43.665Z,12.88
2022-08-19T00:59:13.160Z,12.25
2022-08-19T01:01:43.010Z,11.00
2022-08-19T01:04:10.980Z,11.40
2022-08-19T01:06:40.389Z,12.52
2022-08-19T01:09:08.117Z,12.40
2022-08-19T01:11:43.023Z,12.30
2022-08-19T01:14:12.729Z,11.63
2022-08-19T01:16:42.000Z,11.73
2022-08-19T01:19:18.669Z,11.73
2022-08-19T01:21:52.783Z,12.00
2022-08-19T01:24:21.953Z,12.63
2022-08-19T01:26:52.806Z,12.13
2022-08-19T01:29:21.121Z,11.90
2022-08-19T01:31:53.085Z,11.82
2022-08-19T01:34:22.245Z,11.45
2022-08-19T01:36:51.077Z,11.93
2022-08-19T01:39:22.395Z,10.38
2022-08-19T01:41:50.633Z,11.10
2022-08-19T01:44:21.198Z,10.63
2022-08-19T01:46:50.528Z,11.63
2022-08-19T01:49:22.192Z,10.77
2022-08-19T01:51:50.858Z,10.70
2022-08-19T01:54:23.066Z,10.00
2022-08-19T01:56:59.999Z,10.05
2022-08-19T01:59:27.834Z,10.73
2022-08-19T02:01:56.045Z,10.65
2022-08-19T02:04:24.363Z,9.77
2022-08-19T02:06:52.122Z,10.07
2022-08-19T02:09:21.283Z,10.93
2022-08-19T02:11:49.036Z,10.68
2022-08-19T02:14:16.783Z,10.80
2022-08-19T02:16:44.544Z,9.25
2022-08-19T02:19:12.360Z,10.32
2022-08-19T02:21:40.269Z,9.50
2022-08-19T02:24:08.374Z,10.23
2022-08-19T02:26:37.857Z,8.80
2022-08-19T02:29:05.996Z,8.63
2022-08-19T02:31:34.175Z,8.35
2022-08-19T02:34:01.962Z,8.10
2022-08-19T02:36:31.169Z,8.23
2022-08-19T02:38:57.959Z,7.75
2022-08-19T02:41:28.106Z,8.18
2022-08-19T02:44:26.568Z,8.40
2022-08-19T02:46:48.377Z,8.45
2022-08-19T02:49:17.138Z,8.88
2022-08-19T02:51:47.244Z,8.75
2022-08-19T02:54:16.321Z,8.27
2022-08-19T02:56:45.307Z,9.00
2022-08-19T02:59:14.593Z,9.30
2022-08-19T03:01:43.814Z,9.30
2022-08-19T03:04:13.888Z,8.57
2022-08-19T03:06:43.941Z,10.70
2022-08-19T03:09:12.598Z,9.20
2022-08-19T03:11:41.128Z,9.18
2022-08-19T03:14:11.080Z,8.65
2022-08-19T03:16:45.448Z,8.10
2022-08-19T03:19:14.049Z,9.55
2022-08-19T03:21:42.097Z,8.90
2022-08-19T03:24:10.942Z,8.98
2022-08-19T03:26:41.297Z,8.80
2022-08-19T03:29:11.282Z,8.82
2022-08-19T03:31:52.331Z,8.30
2022-08-19T03:34:24.106Z,9.05
2022-08-19T03:36:51.930Z,9.63
2022-08-19T03:39:20.313Z,9.77
2022-08-19T03:42:32.733Z,9.40
2022-08-19T03:44:39.576Z,10.27
2022-08-19T03:47:09.040Z,9.77
2022-08-19T03:49:37.537Z,9.50
2022-08-19T03:52:08.411Z,9.10
2022-08-19T03:54:37.076Z,9.30
2022-08-19T03:57:05.289Z,9.35
2022-08-19T03:59:36.233Z,8.85
2022-08-19T04:02:09.924Z,8.98
2022-08-19T04:04:39.830Z,9.48
2022-08-19T04:07:09.253Z,8.77
2022-08-19T04:09:38.167Z,8.35
2022-08-19T04:12:07.598Z,8.32
2022-08-19T04:14:36.435Z,8.85
2022-08-19T04:17:05.692Z,8.82
2022-08-19T04:19:34.260Z,9.30
2022-08-19T04:22:03.798Z,8.38
2022-08-19T04:24:32.168Z,8.48
2022-08-19T04:27:01.894Z,7.90
2022-08-19T04:29:29.837Z,8.52
2022-08-19T04:31:59.498Z,8.52
2022-08-19T04:34:30.474Z,8.88
2022-08-19T04:37:00.361Z,7.85
2022-08-19T04:39:45.891Z,8.20
2022-08-19T04:42:32.054Z,9.15
2022-08-19T04:45:00.440Z,8.43
2022-08-19T04:47:48.254Z,7.32
2022-08-19T04:50:17.146Z,9.43
2022-08-19T04:52:44.891Z,8.85
2022-08-19T04:55:14.676Z,8.35
2022-08-19T04:57:42.593Z,7.47
2022-08-19T05:00:11.763Z,8.13
2022-08-19T05:02:40.337Z,7.65
2022-08-19T05:05:08.738Z,7.82
2022-08-19T05:07:37.150Z,8.05
2022-08-19T05:10:05.751Z,7.05
2022-08-19T05:12:38.835Z,7.65
2022-08-19T05:15:09.373Z,7.18
2022-08-19T05:17:39.057Z,7.07
2022-08-19T05:20:25.924Z,6.47
2022-08-19T05:22:53.915Z,7.20
2022-08-19T05:25:23.522Z,7.65
2022-08-19T05:27:52.633Z,7.15
2022-08-19T05:30:33.482Z,7.30
2022-08-19T05:33:10.920Z,7.82
2022-08-19T05:35:39.040Z,7.53
2022-08-19T05:38:08.203Z,7.93
2022-08-19T05:40:37.931Z,7.90
2022-08-19T05:43:08.679Z,8.20
2022-08-19T05:45:40.972Z,8.38
2022-08-19T05:48:08.828Z,9.80
2022-08-19T05:50:38.197Z,10.25
2022-08-19T05:53:05.990Z,10.02
2022-08-19T05:55:33.913Z,10.70
2022-08-19T05:58:02.704Z,10.73
2022-08-19T06:00:32.313Z,10.18
2022-08-19T06:03:12.555Z,10.98
2022-08-19T06:05:44.799Z,11.50
2022-08-19T06:08:20.129Z,10.73
2022-08-19T06:10:48.039Z,10.73
2022-08-19T06:13:15.799Z,10.95
2022-08-19T06:15:47.406Z,11.27
2022-08-19T06:18:16.492Z,11.38
2022-08-19T06:20:57.628Z,11.45
2022-08-19T06:23:25.397Z,11.95
2022-08-19T06:25:53.274Z,12.18
2022-08-19T06:28:22.149Z,12.48
2022-08-19T06:30:52.272Z,12.38
2022-08-19T06:33:20.028Z,12.60
2022-08-19T06:35:47.912Z,13.18
2022-08-19T06:38:15.770Z,12.50
2022-08-19T06:43:12.207Z,13.43
2022-08-19T06:45:41.991Z,13.75
2022-08-19T06:48:11.679Z,15.93
2022-08-19T06:50:39.854Z,16.00
2022-08-19T06:53:08.835Z,15.50
2022-08-19T06:55:36.605Z,17.15
2022-08-19T06:58:05.168Z,16.58
2022-08-19T07:00:33.217Z,18.00
2022-08-19T07:03:06.009Z,17.10
2022-08-19T07:05:45.758Z,18.20
2022-08-19T07:08:14.622Z,17.52
2022-08-19T07:10:46.052Z,19.50
2022-08-19T07:13:14.176Z,18.67
2022-08-19T07:15:42.093Z,19.13
2022-08-19T07:18:11.937Z,19.63
2022-08-19T07:20:42.129Z,19.55
2022-08-19T07:23:10.049Z,21.20
2022-08-19T07:25:44.341Z,19.15
2022-08-19T07:28:19.657Z,19.27
2022-08-19T07:30:52.868Z,20.10
2022-08-19T07:33:21.209Z,21.77
2022-08-19T07:35:50.804Z,21.20
2022-08-19T07:38:18.997Z,21.95
2022-08-19T07:40:47.158Z,21.27
2022-08-19T07:43:17.060Z,21.95
2022-08-19T07:45:46.116Z,21.08
2022-08-19T07:48:13.876Z,19.73
2022-08-19T07:50:41.725Z,20.02
2022-08-19T07:53:11.011Z,19.90
2022-08-19T07:55:41.390Z,19.20
2022-08-19T07:58:11.307Z,19.83
2022-08-19T08:00:39.329Z,21.35
2022-08-19T08:03:07.202Z,20.02
2022-08-19T08:05:52.526Z,20.42
2022-08-19T08:08:44.324Z,21.63
2022-08-19T08:11:19.908Z,20.88
2022-08-19T08:14:01.186Z,21.25
2022-08-19T08:16:35.168Z,21.40
2022-08-19T08:19:20.519Z,21.90
2022-08-19T08:21:54.270Z,21.05
2022-08-19T08:24:28.582Z,21.08
2022-08-19T08:26:57.276Z,23.07
2022-08-19T08:29:26.696Z,23.48
2022-08-19T08:32:02.492Z,22.65
2022-08-19T08:34:30.393Z,21.98
2022-08-19T08:36:58.268Z,22.35
2022-08-19T08:39:27.389Z,22.95
2022-08-19T08:42:10.382Z,22.65
2022-08-19T08:47:30.426Z,25.48
2022-08-19T08:50:04.458Z,27.65
2022-08-19T08:52:37.066Z,28.90
2022-08-19T08:55:11.981Z,27.95
2022-08-19T08:57:51.688Z,26.77
2022-08-19T09:00:22.042Z,28.52
2022-08-19T09:02:50.393Z,27.05
2022-08-19T09:05:22.450Z,27.52
2022-08-19T09:08:02.662Z,27.80
2022-08-19T09:10:44.332Z,28.95
2022-08-19T09:13:27.531Z,29.42
2022-08-19T09:16:02.619Z,30.95
2022-08-19T09:18:41.570Z,29.90
2022-08-19T09:21:09.797Z,28.98
2022-08-19T09:23:37.836Z,27.80
2022-08-19T09:26:11.007Z,26.73
2022-08-19T09:28:39.544Z,29.27
2022-08-19T09:31:12.503Z,26.48
2022-08-19T09:33:40.300Z,27.77
2022-08-19T09:36:10.844Z,29.42
2022-08-19T09:38:43.471Z,29.45
2022-08-19T09:41:15.501Z,28.05
2022-08-19T09:43:47.931Z,27.70
2022-08-19T09:46:18.339Z,26.88
2022-08-19T09:48:49.242Z,26.88
2022-08-19T09:51:19.155Z,24.70
2022-08-19T09:53:51.992Z,26.50
2022-08-19T09:56:23.989Z,26.30
2022-08-19T09:58:52.690Z,25.05
2022-08-19T10:01:22.537Z,26.10
2022-08-19T10:03:52.347Z,25.00
2022-08-19T10:06:20.830Z,23.08
2022-08-19T10:09:11.754Z,25.95
2022-08-19T10:11:48.004Z,26.55
2022-08-19T10:14:23.319Z,25.35
2022-08-19T10:16:52.763Z,24.98
2022-08-19T10:19:25.814Z,25.23
2022-08-19T10:21:54.444Z,24.80
2022-08-19T10:24:25.285Z,22.77
2022-08-19T10:26:57.265Z,20.35
2022-08-19T10:29:31.821Z,22.38
2022-08-19T10:32:02.243Z,21.70
2022-08-19T10:34:32.166Z,22.02
2022-08-19T10:37:02.090Z,19.67
2022-08-19T10:39:31.636Z,21.63
2022-08-19T10:42:07.068Z,22.60
2022-08-19T10:44:36.311Z,18.20
2022-08-19T10:47:05.047Z,17.95
2022-08-19T10:50:03.484Z,19.60
2022-08-19T10:52:38.812Z,18.73
2022-08-19T10:55:26.364Z,15.85
2022-08-19T10:58:02.603Z,13.88
2022-08-19T11:00:31.838Z,12.68
2022-08-19T11:02:59.618Z,11.90
2022-08-19T11:05:27.392Z,11.63
2022-08-19T11:07:55.333Z,11.25
2022-08-19T11:10:24.783Z,11.40
2022-08-19T11:12:55.104Z,11.15
2022-08-19T11:15:24.273Z,11.07
2022-08-19T11:17:55.177Z,10.45
2022-08-19T11:20:24.603Z,10.77
2022-08-19T11:22:53.986Z,9.32
2022-08-19T11:25:21.718Z,10.18
2022-08-19T11:27:52.017Z,9.70
2022-08-19T11:30:19.892Z,9.52
2022-08-19T11:32:49.654Z,8.82
2022-08-19T11:35:20.343Z,9.07
2022-08-19T11:37:48.121Z,8.38
2022-08-19T11:40:16.490Z,8.43
2022-08-19T11:42:59.717Z,11.98
2022-08-19T11:45:28.891Z,13.15
2022-08-19T11:47:58.372Z,12.30
2022-08-19T11:50:26.950Z,12.02
2022-08-19T11:52:56.408Z,10.98
2022-08-19T11:55:25.285Z,10.88
2022-08-19T11:57:53.119Z,8.65
2022-08-19T12:00:21.421Z,9.38
2022-08-19T12:02:49.191Z,8.73
2022-08-19T12:05:18.544Z,8.68
2022-08-19T12:07:47.230Z,7.07
2022-08-19T12:10:15.989Z,7.05
2022-08-19T12:12:47.458Z,7.78
2022-08-19T12:15:27.668Z,5.82
2022-08-19T12:17:57.582Z,6.28
2022-08-19T12:20:27.239Z,5.50
2022-08-19T12:22:55.399Z,3.97
2022-08-19T12:25:24.433Z,2.70
2022-08-19T12:27:57.229Z,2.65
2022-08-19T12:30:26.608Z,2.40
2022-08-19T12:32:54.435Z,2.65
2022-08-19T12:35:22.258Z,2.70
2022-08-19T12:37:57.354Z,2.65
2022-08-19T12:40:26.485Z,2.17
2022-08-19T12:42:54.565Z,2.10
2022-08-19T12:45:22.604Z,2.05
2022-08-19T12:47:50.624Z,2.22
2022-08-19T12:50:22.696Z,2.00
2022-08-19T12:52:51.815Z,1.83
2022-08-19T12:55:20.133Z,2.10
2022-08-19T12:57:49.443Z,1.85
2022-08-19T13:00:21.975Z,1.70
2022-08-19T13:02:51.610Z,1.63
2022-08-19T13:05:23.499Z,1.90
2022-08-19T13:07:56.460Z,2.20
2022-08-19T13:10:28.694Z,2.15
2022-08-19T13:12:57.420Z,2.05
2022-08-19T13:15:25.967Z,1.80
2022-08-19T13:17:56.700Z,2.00
2022-08-19T13:20:25.076Z,2.25
2022-08-19T13:22:54.185Z,1.90
2022-08-19T13:25:22.679Z,2.13
2022-08-19T13:27:52.053Z,1.70
2022-08-19T13:30:39.143Z,2.22
2022-08-19T13:33:16.164Z,1.85
2022-08-19T13:35:47.125Z,2.30
2022-08-19T13:38:18.331Z,2.20
2022-08-19T13:40:47.349Z,2.00
2022-08-19T13:43:22.983Z,2.13
2022-08-19T13:45:53.578Z,2.10
2022-08-19T13:48:21.448Z,2.17
2022-08-19T13:50:49.366Z,2.33
2022-08-19T13:53:19.455Z,2.40
2022-08-19T13:55:47.512Z,2.30
2022-08-19T13:58:15.669Z,2.30
2022-08-19T14:00:46.022Z,2.35
2022-08-19T14:03:14.295Z,2.33
2022-08-19T14:05:42.254Z,2.58
2022-08-19T14:08:10.301Z,2.78
2022-08-19T14:10:39.441Z,2.80
2022-08-19T14:13:07.168Z,2.83
2022-08-19T14:15:35.124Z,2.80
2022-08-19T14:18:02.921Z,2.78
2022-08-19T14:20:31.563Z,3.10
2022-08-19T14:23:00.256Z,3.22
2022-08-19T14:25:31.494Z,3.55
2022-08-19T14:28:01.424Z,3.35
2022-08-19T14:30:31.046Z,3.40
2022-08-19T14:33:00.741Z,3.63
2022-08-19T14:35:29.908Z,3.05
2022-08-19T14:37:58.975Z,3.33
2022-08-19T14:40:31.183Z,3.25
2022-08-19T14:43:05.450Z,2.97
2022-08-19T14:45:35.173Z,2.50
2022-08-19T14:48:05.142Z,2.70
2022-08-19T14:50:33.825Z,2.90
2022-08-19T14:53:12.095Z,2.60
2022-08-19T14:55:43.367Z,2.72
2022-08-19T14:58:29.172Z,2.28
2022-08-19T15:00:57.688Z,2.50
2022-08-19T15:03:25.432Z,2.22
2022-08-19T15:05:53.342Z,1.98
2022-08-19T15:08:25.770Z,2.30
2022-08-19T15:10:53.897Z,2.00
2022-08-19T15:13:23.536Z,2.42
2022-08-19T15:15:52.622Z,2.83
2022-08-19T15:18:21.346Z,2.50
2022-08-19T15:20:49.188Z,3.08
2022-08-19T15:23:19.238Z,3.28
2022-08-19T15:25:47.310Z,3.05
2022-08-19T15:28:16.368Z,3.22
2022-08-19T15:30:46.011Z,2.90
2022-08-19T15:33:15.214Z,3.10
2022-08-19T15:35:43.904Z,2.80
2022-08-19T15:38:13.725Z,3.22
2022-08-19T15:40:42.573Z,3.10
2022-08-19T15:43:10.758Z,2.95
2022-08-19T15:45:40.259Z,3.47
2022-08-19T15:48:09.773Z,3.60
2022-08-19T15:50:39.508Z,3.63
2022-08-19T15:53:09.234Z,4.13
2022-08-19T15:55:43.313Z,3.90
2022-08-19T15:58:30.908Z,4.03
2022-08-19T16:01:17.819Z,4.93
2022-08-19T16:04:13.880Z,6.00
2022-08-19T16:06:46.485Z,4.95
2022-08-19T16:09:15.505Z,5.85
2022-08-19T16:11:45.753Z,5.45
2022-08-19T16:14:14.281Z,5.07
2022-08-19T16:16:42.172Z,5.93
2022-08-19T16:19:12.681Z,4.80
2022-08-19T16:21:41.744Z,5.03
2022-08-19T16:24:12.151Z,4.85
2022-08-19T16:26:40.374Z,4.78
2022-08-19T16:29:12.015Z,4.72
2022-08-19T16:31:41.368Z,4.40
2022-08-19T16:34:09.125Z,4.13
2022-08-19T16:36:42.114Z,4.45
2022-08-19T16:39:11.015Z,4.28
2022-08-19T16:41:39.072Z,3.85
2022-08-19T16:44:07.753Z,3.53
2022-08-19T16:46:37.171Z,3.10
2022-08-19T16:49:05.359Z,3.90
2022-08-19T16:51:33.640Z,3.53
2022-08-19T16:54:03.485Z,3.50
2022-08-19T16:56:31.236Z,3.80
2022-08-19T16:58:59.775Z,3.88
2022-08-19T17:01:28.591Z,3.90
2022-08-19T17:03:57.184Z,4.35
2022-08-19T17:06:28.751Z,4.85
2022-08-19T17:08:58.787Z,4.38
2022-08-19T17:11:29.445Z,4.80
2022-08-19T17:13:58.966Z,4.55
2022-08-19T17:16:29.511Z,3.80
2022-08-19T17:18:59.546Z,4.15
2022-08-19T17:21:29.538Z,4.05
2022-08-19T17:23:58.122Z,3.22
2022-08-19T17:26:28.581Z,3.00
2022-08-19T17:28:57.685Z,3.95
2022-08-19T17:31:27.453Z,3.70
2022-08-19T17:33:56.145Z,3.58
2022-08-19T17:36:26.368Z,4.00
2022-08-19T17:38:55.633Z,3.85
2022-08-19T17:41:24.152Z,3.80
2022-08-19T17:43:53.759Z,3.00
2022-08-19T17:46:21.984Z,3.33
2022-08-19T17:48:52.983Z,3.13
2022-08-19T17:51:23.503Z,3.35
2022-08-19T17:53:54.020Z,3.53
2022-08-19T17:56:23.501Z,3.50
2022-08-19T17:59:00.049Z,3.60
2022-08-19T18:01:49.309Z,3.63
2022-08-19T18:04:19.753Z,3.65
2022-08-19T18:06:53.558Z,4.07
2022-08-19T18:09:24.471Z,4.03
2022-08-19T18:11:54.074Z,3.97
2022-08-19T18:14:33.485Z,3.92
2022-08-19T18:17:06.271Z,4.45
2022-08-19T18:19:41.558Z,4.55
2022-08-19T18:22:11.862Z,4.32
2022-08-19T18:24:40.713Z,4.68
2022-08-19T18:27:08.548Z,5.15
2022-08-19T18:29:38.244Z,6.03
2022-08-19T18:32:12.552Z,6.43
2022-08-19T18:34:40.881Z,6.80
2022-08-19T18:37:08.629Z,7.47
2022-08-19T18:39:54.111Z,7.53
2022-08-19T18:42:39.527Z,7.65
2022-08-19T18:45:25.911Z,8.40
2022-08-19T18:48:27.691Z,8.02
2022-08-19T18:50:58.294Z,8.10
2022-08-19T18:53:28.372Z,8.60
2022-08-19T18:55:56.641Z,9.27
2022-08-19T18:58:26.629Z,7.55
2022-08-19T19:00:56.971Z,8.70
2022-08-19T19:03:27.164Z,9.02
2022-08-19T19:05:55.300Z,9.43
2022-08-19T19:08:27.072Z,9.65
2022-08-19T19:10:56.015Z,10.10
2022-08-19T19:13:23.776Z,9.80
2022-08-19T19:15:51.625Z,10.55
2022-08-19T19:18:19.450Z,10.77
2022-08-19T19:20:48.572Z,12.50
2022-08-19T19:23:16.348Z,11.68
2022-08-19T19:25:50.997Z,13.02
2022-08-19T19:28:23.881Z,11.90
2022-08-19T19:30:52.441Z,12.65
2022-08-19T19:33:21.340Z,11.60
2022-08-19T19:35:50.764Z,12.45
2022-08-19T19:38:18.609Z,12.32
2022-08-19T19:40:46.562Z,13.50
2022-08-19T19:43:17.384Z,12.98
2022-08-19T19:45:45.303Z,13.57
2022-08-19T19:48:14.895Z,13.23
2022-08-19T19:50:42.884Z,13.00
2022-08-19T19:53:13.091Z,12.27
2022-08-19T19:55:41.264Z,12.98
2022-08-19T19:58:09.862Z,11.90
2022-08-19T20:00:37.710Z,12.48
2022-08-19T20:03:06.577Z,12.63
2022-08-19T20:05:34.419Z,11.82
2022-08-19T20:08:28.121Z,12.30
2022-08-19T20:10:57.597Z,12.10
2022-08-19T20:13:25.425Z,12.73
2022-08-19T20:15:53.208Z,11.82
2022-08-19T20:18:21.022Z,10.95
2022-08-19T20:20:49.987Z,13.48
2022-08-19T20:23:18.411Z,13.35
2022-08-19T20:25:46.919Z,12.50
2022-08-19T20:28:16.419Z,11.07
2022-08-19T20:30:46.736Z,11.23
2022-08-19T20:33:16.389Z,11.27
2022-08-19T20:35:45.393Z,11.48
2022-08-19T20:38:13.350Z,10.77
2022-08-19T20:40:41.512Z,11.35
2022-08-19T20:43:11.118Z,10.27
2022-08-19T20:45:40.888Z,10.68
2022-08-19T20:48:10.545Z,10.43
2022-08-19T20:50:38.443Z,10.52
2022-08-19T20:53:12.280Z,10.75
2022-08-19T20:55:40.148Z,10.73
2022-08-19T20:58:08.726Z,10.52
2022-08-19T21:00:36.611Z,10.48
2022-08-19T21:03:06.560Z,10.55
2022-08-19T21:05:34.370Z,10.93
2022-08-19T21:08:03.173Z,11.07
2022-08-19T21:10:30.960Z,10.55
2022-08-19T21:12:58.744Z,10.98
2022-08-19T21:15:26.720Z,10.93
2022-08-19T21:17:54.645Z,11.75
2022-08-19T21:20:24.496Z,11.82
2022-08-19T21:22:52.202Z,11.30
2022-08-19T21:25:20.070Z,11.98
2022-08-19T21:27:47.825Z,10.85
2022-08-19T21:30:15.773Z,11.23
2022-08-19T21:32:43.490Z,11.18
2022-08-19T21:35:11.248Z,11.27
2022-08-19T21:37:40.406Z,11.13
2022-08-19T21:40:09.633Z,11.30
2022-08-19T21:42:37.994Z,11.57
2022-08-19T21:45:06.756Z,11.02
2022-08-19T21:47:34.524Z,12.13
2022-08-19T21:50:03.054Z,11.40
2022-08-19T21:52:30.884Z,12.63
2022-08-19T21:55:00.049Z,12.23
2022-08-19T21:57:27.841Z,12.95
2022-08-19T21:59:55.565Z,12.15
2022-08-19T22:02:23.679Z,12.60
2022-08-19T22:04:53.309Z,12.25
2022-08-19T22:07:23.005Z,11.90
2022-08-19T22:09:51.802Z,11.75
2022-08-19T22:12:27.375Z,12.57
2022-08-19T22:17:23.487Z,12.30
2022-08-19T22:19:52.472Z,13.23
2022-08-19T22:22:25.113Z,13.07
2022-08-19T22:24:53.414Z,13.82
2022-08-19T22:27:23.154Z,13.00
2022-08-19T22:29:52.630Z,13.68
2022-08-19T22:32:28.211Z,13.38
2022-08-19T22:34:58.656Z,12.90
2022-08-19T22:37:27.692Z,14.27
2022-08-19T22:39:55.839Z,13.75
2022-08-19T22:42:33.241Z,14.38
2022-08-19T22:45:01.156Z,14.23
2022-08-19T22:47:32.125Z,14.00
2022-08-19T22:50:01.996Z,13.73
2022-08-19T22:52:28.837Z,13.10
2022-08-19T22:55:00.312Z,12.73
2022-08-19T22:57:29.577Z,13.40
2022-08-19T23:00:00.957Z,14.20
2022-08-19T23:09:24.286Z,13.60
2022-08-19T23:11:52.221Z,14.30
2022-08-19T23:14:19.954Z,13.98
2022-08-19T23:16:51.290Z,13.40
2022-08-19T23:19:20.856Z,13.90
2022-08-19T23:21:48.805Z,13.88
2022-08-19T23:24:18.016Z,12.40
2022-08-19T23:26:59.697Z,12.43
2022-08-19T23:29:44.838Z,13.27
2022-08-19T23:32:13.174Z,13.83
2022-08-19T23:34:44.055Z,13.10
2022-08-19T23:37:11.801Z,15.07
2022-08-19T23:39:40.983Z,15.35
2022-08-19T23:42:12.365Z,14.13
2022-08-19T23:44:51.277Z,15.55
2022-08-19T23:47:19.481Z,14.30
2022-08-19T23:49:48.618Z,14.98
2022-08-19T23:52:16.488Z,16.38
2022-08-19T23:54:45.642Z,15.85
2022-08-19T23:57:14.717Z,15.45
2022-08-19T23:59:45.123Z,15.75
